createdAt,value
2018-09-11T00:00:55.466Z,8.80
2018-09-11T00:03:24.505Z,10.23
2018-09-11T00:05:54.067Z,9.60
2018-09-11T00:08:23.420Z,9.47
2018-09-11T00:10:52.671Z,9.27
2018-09-11T00:13:22.276Z,9.38
2018-09-11T00:15:51.576Z,10.10
2018-09-11T00:18:20.876Z,8.90
2018-09-11T00:20:50.180Z,11.47
2018-09-11T00:23:19.787Z,8.63
2018-09-11T00:25:49.391Z,8.83
2018-09-11T00:28:19.000Z,11.27
2018-09-11T00:30:48.269Z,9.63
2018-09-11T00:33:17.907Z,9.77
2018-09-11T00:35:47.479Z,9.85
2018-09-11T00:38:16.531Z,10.20
2018-09-11T00:40:45.607Z,9.37
2018-09-11T00:43:15.073Z,8.63
2018-09-11T00:45:44.717Z,10.25
2018-09-11T00:48:13.870Z,8.93
2018-09-11T00:50:42.819Z,11.63
2018-09-11T00:53:11.722Z,8.97
2018-09-11T00:55:40.710Z,8.63
2018-09-11T00:58:09.854Z,8.10
2018-09-11T01:00:38.750Z,8.77
2018-09-11T01:03:07.673Z,9.03
2018-09-11T01:05:36.667Z,8.93
2018-09-11T01:08:05.611Z,9.23
2018-09-11T01:10:34.534Z,8.97
2018-09-11T01:13:03.467Z,9.23
2018-09-11T01:15:32.434Z,10.43
2018-09-11T01:18:02.571Z,8.90
2018-09-11T01:20:31.577Z,10.63
2018-09-11T01:23:01.152Z,10.17
2018-09-11T01:25:30.206Z,9.20
2018-09-11T01:27:59.753Z,10.93
2018-09-11T01:30:29.363Z,10.03
2018-09-11T01:32:58.694Z,10.73
2018-09-11T01:35:28.270Z,10.60
2018-09-11T01:37:58.046Z,10.00
2018-09-11T01:40:27.792Z,9.53
2018-09-11T01:42:57.195Z,10.50
2018-09-11T01:45:26.691Z,11.80
2018-09-11T01:47:56.001Z,12.47
2018-09-11T01:50:25.467Z,9.53
2018-09-11T01:52:55.219Z,9.97
2018-09-11T01:55:24.517Z,9.10
2018-09-11T01:57:53.574Z,12.80
2018-09-11T02:00:35.107Z,10.80
2018-09-11T02:03:04.539Z,10.43
2018-09-11T02:05:34.482Z,10.97
2018-09-11T02:08:04.229Z,10.47
2018-09-11T02:10:33.325Z,13.73
2018-09-11T02:13:02.520Z,11.97
2018-09-11T02:15:31.638Z,10.80
2018-09-11T02:18:00.909Z,9.87
2018-09-11T02:20:30.422Z,9.90
2018-09-11T02:22:59.830Z,9.67
2018-09-11T02:25:29.149Z,10.20
2018-09-11T02:27:58.578Z,9.80
2018-09-11T02:30:28.102Z,10.47
2018-09-11T02:32:57.848Z,10.07
2018-09-11T02:35:27.149Z,10.53
2018-09-11T02:37:56.761Z,11.07
2018-09-11T02:40:26.057Z,11.60
2018-09-11T02:42:55.058Z,10.23
2018-09-11T02:45:24.965Z,11.00
2018-09-11T02:47:55.074Z,11.67
2018-09-11T02:50:24.467Z,12.33
2018-09-11T02:52:54.092Z,10.23
2018-09-11T02:55:23.143Z,14.67
2018-09-11T02:57:52.745Z,11.00
2018-09-11T03:00:22.609Z,11.43
2018-09-11T03:02:51.659Z,11.60
2018-09-11T03:05:21.210Z,10.60
2018-09-11T03:07:50.238Z,11.00
2018-09-11T03:10:19.813Z,11.03
2018-09-11T03:12:48.821Z,10.67
2018-09-11T03:15:18.412Z,11.13
2018-09-11T03:17:48.018Z,11.97
2018-09-11T03:20:17.371Z,12.50
2018-09-11T03:22:46.646Z,12.35
2018-09-11T03:25:15.738Z,12.10
2018-09-11T03:27:45.220Z,13.20
2018-09-11T03:30:14.294Z,16.13
2018-09-11T03:32:43.824Z,13.10
2018-09-11T03:35:12.926Z,15.00
2018-09-11T03:37:42.422Z,14.47
2018-09-11T03:40:11.466Z,13.17
2018-09-11T03:42:40.502Z,12.53
2018-09-11T03:45:10.016Z,12.77
2018-09-11T03:47:39.022Z,12.40
2018-09-11T03:50:08.618Z,13.37
2018-09-11T03:52:38.225Z,13.35
2018-09-11T03:55:07.536Z,13.77
2018-09-11T03:57:36.543Z,12.93
2018-09-11T04:00:06.095Z,13.83
2018-09-11T04:02:35.191Z,13.37
2018-09-11T04:05:04.166Z,14.33
2018-09-11T04:07:33.720Z,14.80
2018-09-11T04:10:03.029Z,14.90
2018-09-11T04:12:32.349Z,20.13
2018-09-11T04:15:01.421Z,16.17
2018-09-11T04:17:35.698Z,16.87
2018-09-11T04:20:04.893Z,14.90
2018-09-11T04:22:34.437Z,14.23
2018-09-11T04:25:04.048Z,17.20
2018-09-11T04:27:33.227Z,14.53
2018-09-11T04:30:02.646Z,11.40
2018-09-11T04:32:32.253Z,10.23
2018-09-11T04:35:01.283Z,10.33
2018-09-11T04:37:30.346Z,10.37
2018-09-11T04:39:59.531Z,11.30
2018-09-11T04:42:29.149Z,12.50
2018-09-11T04:44:58.210Z,13.23
2018-09-11T04:47:27.749Z,15.40
2018-09-11T04:49:57.971Z,11.87
2018-09-11T04:52:27.272Z,12.77
2018-09-11T04:54:56.306Z,12.07
2018-09-11T04:57:25.834Z,13.20
2018-09-11T04:59:55.239Z,13.57
2018-09-11T05:02:24.473Z,16.47
2018-09-11T05:04:54.081Z,24.83
2018-09-11T05:07:23.403Z,25.80
2018-09-11T05:09:53.159Z,22.87
2018-09-11T05:12:23.211Z,22.47
2018-09-11T05:14:52.337Z,22.60
2018-09-11T05:17:21.586Z,18.43
2018-09-11T05:19:50.522Z,20.87
2018-09-11T05:22:20.112Z,18.27
2018-09-11T05:24:49.575Z,17.23
2018-09-11T05:27:19.327Z,20.93
2018-09-11T05:29:48.674Z,24.87
2018-09-11T05:32:18.030Z,26.77
2018-09-11T05:34:47.530Z,26.80
2018-09-11T05:37:16.831Z,28.43
2018-09-11T05:39:46.438Z,38.50
2018-09-11T05:42:16.049Z,36.33
2018-09-11T05:44:45.447Z,35.03
2018-09-11T05:47:14.997Z,33.80
2018-09-11T05:49:44.561Z,29.80
2018-09-11T05:52:13.878Z,27.03
2018-09-11T05:54:43.468Z,30.23
2018-09-11T05:57:13.202Z,26.85
2018-09-11T05:59:42.993Z,32.48
2018-09-11T06:02:12.909Z,31.70
2018-09-11T06:04:42.790Z,32.70
2018-09-11T06:07:12.146Z,25.45
2018-09-11T06:09:42.036Z,23.60
2018-09-11T06:12:11.090Z,24.77
2018-09-11T06:14:40.279Z,23.60
2018-09-11T06:17:10.244Z,18.23
2018-09-11T06:19:39.852Z,15.75
2018-09-11T06:22:08.874Z,16.23
2018-09-11T06:24:37.962Z,13.72
2018-09-11T06:27:06.832Z,18.65
2018-09-11T06:29:36.438Z,12.95
2018-09-11T06:32:05.457Z,8.90
2018-09-11T06:34:34.898Z,10.78
2018-09-11T06:37:04.098Z,9.83
2018-09-11T06:39:33.071Z,10.50
2018-09-11T06:42:02.085Z,13.08
2018-09-11T06:44:31.064Z,18.32
2018-09-11T06:47:00.626Z,14.15
2018-09-11T06:49:30.086Z,15.35
2018-09-11T06:51:59.839Z,11.28
2018-09-11T06:54:29.447Z,13.85
2018-09-11T06:56:59.052Z,11.10
2018-09-11T06:59:28.658Z,12.47
2018-09-11T07:01:57.750Z,11.38
2018-09-11T07:04:27.322Z,10.08
2018-09-11T07:06:56.274Z,8.70
2018-09-11T07:09:25.575Z,9.00
2018-09-11T07:11:55.467Z,11.68
2018-09-11T07:14:24.484Z,6.62
2018-09-11T07:16:54.068Z,8.33
2018-09-11T07:19:23.680Z,7.17
2018-09-11T07:21:53.561Z,9.10
2018-09-11T07:24:23.201Z,7.33
2018-09-11T07:26:52.809Z,5.72
2018-09-11T07:29:22.011Z,8.85
2018-09-11T07:31:51.642Z,7.50
2018-09-11T07:34:20.742Z,8.25
2018-09-11T07:36:49.838Z,9.30
2018-09-11T07:39:20.266Z,8.48
2018-09-11T07:41:49.263Z,8.60
2018-09-11T07:44:18.831Z,9.68
2018-09-11T07:46:48.132Z,12.45
2018-09-11T07:49:17.458Z,9.15
2018-09-11T07:51:46.446Z,7.92
2018-09-11T07:54:16.035Z,8.33
2018-09-11T07:56:45.948Z,6.80
2018-09-11T07:59:14.978Z,9.25
2018-09-11T08:01:44.242Z,6.80
2018-09-11T08:04:13.255Z,6.80
2018-09-11T08:06:42.600Z,6.53
2018-09-11T08:09:13.375Z,6.80
2018-09-11T08:11:42.841Z,5.92
2018-09-11T08:14:12.063Z,6.80
2018-09-11T08:16:41.273Z,5.10
2018-09-11T08:19:10.881Z,6.12
2018-09-11T08:21:39.888Z,4.40
2018-09-11T08:24:09.345Z,5.60
2018-09-11T08:26:38.547Z,10.15
2018-09-11T08:29:07.550Z,8.53
2018-09-11T08:31:37.078Z,9.25
2018-09-11T08:34:06.379Z,4.28
2018-09-11T08:36:35.454Z,5.95
2018-09-11T08:39:04.828Z,7.60
2018-09-11T08:41:33.987Z,5.85
2018-09-11T08:44:04.000Z,6.35
2018-09-11T08:46:41.754Z,6.17
2018-09-11T08:49:19.028Z,5.90
2018-09-11T08:51:57.693Z,4.40
2018-09-11T08:54:29.166Z,4.75
2018-09-11T08:56:59.611Z,5.00
2018-09-11T08:59:29.487Z,6.00
2018-09-11T09:01:58.510Z,7.42
2018-09-11T09:04:27.780Z,4.53
2018-09-11T09:06:57.202Z,4.90
2018-09-11T09:09:26.699Z,4.20
2018-09-11T09:11:56.606Z,6.42
2018-09-11T09:14:25.903Z,6.33
2018-09-11T09:16:55.510Z,4.42
2018-09-11T09:19:24.848Z,4.08
2018-09-11T09:21:54.274Z,6.17
2018-09-11T09:24:23.478Z,4.45
2018-09-11T09:26:54.507Z,4.30
2018-09-11T09:29:24.471Z,4.80
2018-09-11T09:31:53.771Z,8.35
2018-09-11T09:34:23.340Z,8.70
2018-09-11T09:36:52.559Z,9.48
2018-09-11T09:39:21.694Z,8.45
2018-09-11T09:41:50.999Z,11.97
2018-09-11T09:44:20.273Z,8.30
2018-09-11T09:46:49.889Z,7.47
2018-09-11T09:49:18.947Z,10.53
2018-09-11T09:51:48.176Z,4.25
2018-09-11T09:54:17.195Z,3.92
2018-09-11T09:56:46.775Z,4.87
2018-09-11T09:59:16.117Z,5.78
2018-09-11T10:01:50.389Z,4.25
2018-09-11T10:04:19.454Z,4.10
2018-09-11T10:06:48.926Z,4.00
2018-09-11T10:09:18.218Z,9.10
2018-09-11T10:11:47.360Z,5.83
2018-09-11T10:14:19.743Z,11.63
2018-09-11T10:16:49.480Z,12.30
2018-09-11T10:19:19.403Z,9.53
2018-09-11T10:21:48.995Z,11.20
2018-09-11T10:24:18.023Z,8.70
2018-09-11T10:26:47.047Z,4.87
2018-09-11T10:29:16.282Z,7.62
2018-09-11T10:31:45.586Z,4.37
2018-09-11T10:34:15.192Z,12.35
2018-09-11T10:36:44.298Z,15.30
2018-09-11T10:39:13.861Z,3.80
2018-09-11T10:41:43.575Z,4.22
2018-09-11T10:44:13.034Z,14.23
2018-09-11T10:46:42.031Z,9.40
2018-09-11T10:49:11.607Z,3.83
2018-09-11T10:51:41.219Z,4.87
2018-09-11T10:54:10.516Z,3.47
2018-09-11T10:56:39.877Z,6.20
2018-09-11T10:59:09.424Z,5.05
2018-09-11T11:01:38.465Z,39.63
2018-09-11T11:04:08.025Z,6.00
2018-09-11T11:06:37.383Z,6.00
2018-09-11T11:09:08.551Z,6.83
2018-09-11T11:11:37.974Z,5.67
2018-09-11T11:14:09.524Z,3.92
2018-09-11T11:16:39.134Z,4.50
2018-09-11T11:19:13.042Z,4.03
2018-09-11T11:21:42.457Z,8.45
2018-09-11T11:24:12.153Z,3.20
2018-09-11T11:26:46.129Z,3.20
2018-09-11T11:29:15.635Z,5.75
2018-09-11T11:34:22.097Z,4.78
2018-09-11T11:36:53.371Z,5.37
2018-09-11T11:39:22.240Z,3.95
2018-09-11T11:41:57.025Z,5.28
2018-09-11T11:44:26.754Z,14.20
2018-09-11T11:46:57.543Z,4.85
2018-09-11T11:49:26.910Z,3.70
2018-09-11T11:51:57.515Z,3.98
2018-09-11T11:54:34.554Z,4.47
2018-09-11T11:57:05.951Z,3.80
2018-09-11T11:59:40.430Z,4.05
2018-09-11T12:02:10.543Z,3.55
2018-09-11T12:04:44.843Z,3.40
2018-09-11T12:07:14.758Z,3.40
2018-09-11T12:09:44.484Z,4.22
2018-09-11T12:12:13.869Z,4.92
2018-09-11T12:14:43.140Z,4.03
2018-09-11T12:17:14.880Z,3.05
2018-09-11T12:19:55.322Z,3.60
2018-09-11T12:22:24.550Z,3.62
2018-09-11T12:24:54.144Z,4.92
2018-09-11T12:27:24.073Z,4.78
2018-09-11T12:29:53.635Z,4.37
2018-09-11T12:32:27.682Z,3.62
2018-09-11T12:34:58.346Z,3.33
2018-09-11T12:40:09.357Z,3.72
2018-09-11T12:42:38.353Z,4.65
2018-09-11T12:45:14.440Z,4.05
2018-09-11T12:47:44.402Z,3.50
2018-09-11T12:50:18.083Z,3.30
2018-09-11T12:52:53.007Z,3.37
2018-09-11T12:55:27.695Z,4.50
2018-09-11T12:57:57.410Z,3.30
2018-09-11T13:00:27.647Z,3.67
2018-09-11T13:02:57.134Z,5.22
2018-09-11T13:05:26.882Z,6.10
2018-09-11T13:07:57.537Z,3.92
2018-09-11T13:10:27.084Z,5.03
2018-09-11T13:12:57.224Z,3.58
2018-09-11T13:15:26.910Z,4.10
2018-09-11T13:17:55.951Z,3.62
2018-09-11T13:20:25.756Z,3.67
2018-09-11T13:22:54.775Z,3.47
2018-09-11T13:25:24.449Z,3.60
2018-09-11T13:27:54.272Z,2.80
2018-09-11T13:30:23.880Z,4.78
2018-09-11T13:32:53.233Z,3.72
2018-09-11T13:35:22.595Z,3.70
2018-09-11T13:37:52.396Z,3.40
2018-09-11T13:40:21.446Z,6.28
2018-09-11T13:42:50.462Z,3.83
2018-09-11T13:45:20.297Z,3.52
2018-09-11T13:47:49.378Z,3.77
2018-09-11T13:50:18.903Z,3.30
2018-09-11T13:52:48.438Z,3.80
2018-09-11T13:55:17.828Z,4.50
2018-09-11T13:57:47.417Z,5.83
2018-09-11T14:00:16.487Z,5.22
2018-09-11T14:02:45.837Z,6.30
2018-09-11T14:05:15.627Z,4.12
2018-09-11T14:07:44.979Z,4.80
2018-09-11T14:10:14.228Z,3.67
2018-09-11T14:12:43.967Z,4.87
2018-09-11T14:17:56.631Z,4.87
2018-09-11T14:20:25.966Z,4.58
2018-09-11T14:22:56.088Z,3.67
2018-09-11T14:25:25.508Z,4.17
2018-09-11T14:27:55.303Z,6.20
2018-09-11T14:30:24.712Z,4.47
2018-09-11T14:32:54.998Z,5.53
2018-09-11T14:35:25.050Z,4.15
2018-09-11T14:37:54.528Z,5.12
2018-09-11T14:40:24.571Z,3.83
2018-09-11T14:42:54.180Z,3.25
2018-09-11T14:45:23.204Z,2.70
2018-09-11T14:47:52.590Z,6.20
2018-09-11T14:50:22.050Z,3.33
2018-09-11T14:52:51.094Z,3.42
2018-09-11T14:55:20.492Z,2.72
2018-09-11T14:57:49.994Z,3.77
2018-09-11T15:00:19.460Z,4.30
2018-09-11T15:02:48.892Z,4.67
2018-09-11T15:05:17.927Z,2.67
2018-09-11T15:07:46.944Z,3.35
2018-09-11T15:10:17.095Z,4.00
2018-09-11T15:12:46.702Z,3.35
2018-09-11T15:15:15.759Z,3.17
2018-09-11T15:17:45.407Z,2.85
2018-09-11T15:20:15.035Z,3.72
2018-09-11T15:22:44.644Z,4.70
2018-09-11T15:25:13.881Z,2.62
2018-09-11T15:27:43.219Z,3.92
2018-09-11T15:30:12.455Z,2.47
2018-09-11T15:32:41.902Z,4.87
2018-09-11T15:35:11.359Z,5.50
2018-09-11T15:37:40.604Z,3.02
2018-09-11T15:40:10.308Z,5.75
2018-09-11T15:42:40.399Z,5.92
2018-09-11T15:45:09.787Z,6.75
2018-09-11T15:47:39.373Z,6.45
2018-09-11T15:50:08.974Z,11.65
2018-09-11T15:52:38.583Z,6.45
2018-09-11T15:55:08.659Z,6.55
2018-09-11T15:57:41.551Z,5.62
2018-09-11T16:00:11.147Z,8.98
2018-09-11T16:02:40.155Z,8.05
2018-09-11T16:05:10.114Z,5.53
2018-09-11T16:07:40.325Z,4.95
2018-09-11T16:10:11.318Z,6.67
2018-09-11T16:12:43.841Z,5.65
2018-09-11T16:15:13.623Z,7.25
2018-09-11T16:17:43.887Z,6.17
2018-09-11T16:20:14.469Z,8.60
2018-09-11T16:22:43.768Z,6.33
2018-09-11T16:25:13.005Z,3.80
2018-09-11T16:27:42.919Z,10.28
2018-09-11T16:30:12.114Z,8.23
2018-09-11T16:32:42.013Z,7.92
2018-09-11T16:35:11.163Z,6.47
2018-09-11T16:37:40.160Z,4.70
2018-09-11T16:40:10.066Z,3.80
2018-09-11T16:42:39.724Z,6.85
2018-09-11T16:45:09.253Z,5.47
2018-09-11T16:47:38.551Z,7.12
2018-09-11T16:50:08.162Z,4.95
2018-09-11T16:52:37.182Z,5.72
2018-09-11T16:55:06.812Z,5.70
2018-09-11T16:57:36.369Z,4.17
2018-09-11T17:00:05.895Z,7.33
2018-09-11T17:02:35.377Z,5.35
2018-09-11T17:05:04.681Z,6.72
2018-09-11T17:07:33.948Z,9.15
2018-09-11T17:10:04.099Z,7.12
2018-09-11T17:12:33.571Z,4.67
2018-09-11T17:15:03.088Z,5.15
2018-09-11T17:17:32.387Z,9.58
2018-09-11T17:20:01.928Z,5.87
2018-09-11T17:22:31.699Z,7.05
2018-09-11T17:25:01.451Z,6.37
2018-09-11T17:27:30.622Z,9.00
2018-09-11T17:29:59.763Z,6.47
2018-09-11T17:32:29.071Z,6.08
2018-09-11T17:34:59.062Z,8.63
2018-09-11T17:37:29.339Z,5.42
2018-09-11T17:39:58.818Z,6.37
2018-09-11T17:42:28.259Z,6.05
2018-09-11T17:44:58.272Z,5.60
2018-09-11T17:47:28.102Z,6.30
2018-09-11T17:49:57.827Z,8.15
2018-09-11T17:52:27.703Z,6.78
2018-09-11T17:54:57.195Z,5.65
2018-09-11T17:57:26.649Z,5.45
2018-09-11T17:59:56.562Z,6.15
2018-09-11T18:02:26.481Z,6.60
2018-09-11T18:04:56.391Z,5.75
2018-09-11T18:07:25.789Z,15.55
2018-09-11T18:09:55.064Z,11.70
2018-09-11T18:12:25.634Z,14.20
2018-09-11T18:14:56.431Z,13.62
2018-09-11T18:17:26.034Z,9.00
2018-09-11T18:20:02.335Z,11.78
2018-09-11T18:22:32.484Z,10.35
2018-09-11T18:25:04.708Z,12.60
2018-09-11T18:27:33.747Z,12.95
2018-09-11T18:30:08.133Z,6.80
2018-09-11T18:32:37.546Z,10.35
2018-09-11T18:35:07.656Z,11.88
2018-09-11T18:37:38.013Z,18.07
2018-09-11T18:40:08.104Z,12.53
2018-09-11T18:42:37.708Z,12.53
2018-09-11T18:45:06.730Z,12.00
2018-09-11T18:47:42.454Z,17.20
2018-09-11T18:50:11.786Z,11.73
2018-09-11T18:52:42.270Z,13.43
2018-09-11T18:55:11.625Z,16.45
2018-09-11T19:00:22.027Z,11.05
2018-09-11T19:02:54.879Z,10.85
2018-09-11T19:05:26.697Z,9.90
2018-09-11T19:07:56.211Z,11.95
2018-09-11T19:10:29.000Z,10.23
2018-09-11T19:12:59.341Z,9.73
2018-09-11T19:15:34.644Z,13.25
2018-09-11T19:18:06.949Z,15.10
2018-09-11T19:20:42.430Z,11.90
2018-09-11T19:23:12.858Z,8.80
2018-09-11T19:25:43.471Z,11.53
2018-09-11T19:28:13.873Z,15.80
2018-09-11T19:30:44.523Z,8.93
2018-09-11T19:33:15.996Z,11.33
2018-09-11T19:35:46.843Z,8.55
2018-09-11T19:38:17.001Z,11.30
2018-09-11T19:40:47.652Z,9.63
2018-09-11T19:43:18.437Z,11.35
2018-09-11T19:45:51.793Z,9.68
2018-09-11T19:48:22.946Z,10.65
2018-09-11T19:50:53.511Z,12.00
2018-09-11T19:53:25.312Z,8.90
2018-09-11T19:55:55.637Z,8.73
2018-09-11T19:58:25.747Z,10.28
2018-09-11T20:00:58.058Z,9.13
2018-09-11T20:03:28.033Z,8.13
2018-09-11T20:05:58.209Z,11.20
2018-09-11T20:08:28.142Z,14.87
2018-09-11T20:10:58.182Z,10.75
2018-09-11T20:13:28.097Z,8.63
2018-09-11T20:15:58.295Z,11.95
2018-09-11T20:18:28.370Z,10.00
2018-09-11T20:20:58.149Z,9.45
2018-09-11T20:23:28.256Z,6.83
2018-09-11T20:25:59.460Z,9.25
2018-09-11T20:28:29.785Z,8.10
2018-09-11T20:30:59.798Z,8.83
2018-09-11T20:33:33.632Z,10.05
2018-09-11T20:36:05.929Z,9.78
2018-09-11T20:38:38.091Z,7.30
2018-09-11T20:41:10.617Z,5.90
2018-09-11T20:43:43.713Z,10.08
2018-09-11T20:46:13.926Z,9.23
2018-09-11T20:48:44.711Z,6.22
2018-09-11T20:51:14.400Z,7.83
2018-09-11T20:53:44.812Z,7.90
2018-09-11T20:56:14.641Z,6.33
2018-09-11T20:58:44.661Z,10.25
2018-09-11T21:01:15.177Z,6.33
2018-09-11T21:03:45.891Z,6.60
2018-09-11T21:06:16.507Z,7.03
2018-09-11T21:08:47.700Z,6.37
2018-09-11T21:11:20.683Z,7.28
2018-09-11T21:13:52.454Z,7.67
2018-09-11T21:16:24.338Z,5.92
2018-09-11T21:19:05.412Z,8.98
2018-09-11T21:21:41.943Z,6.40
2018-09-11T21:24:27.258Z,6.12
2018-09-11T21:26:58.496Z,7.40
2018-09-11T21:29:28.726Z,6.75
2018-09-11T21:31:58.645Z,6.47
2018-09-11T21:34:29.338Z,9.90
2018-09-11T21:36:59.725Z,6.58
2018-09-11T21:39:29.685Z,7.50
2018-09-11T21:42:10.511Z,9.30
2018-09-11T21:44:48.254Z,7.60
2018-09-11T21:47:24.391Z,8.18
2018-09-11T21:49:59.131Z,8.80
2018-09-11T21:52:46.840Z,7.97
2018-09-11T21:55:19.473Z,9.13
2018-09-11T21:57:49.137Z,6.05
2018-09-11T22:00:19.610Z,6.47
2018-09-11T22:02:49.095Z,7.95
2018-09-11T22:05:18.601Z,10.37
2018-09-11T22:07:48.121Z,7.43
2018-09-11T22:10:17.648Z,7.85
2018-09-11T22:12:47.148Z,6.08
2018-09-11T22:15:16.827Z,9.03
2018-09-11T22:17:46.337Z,8.57
2018-09-11T22:20:15.888Z,8.23
2018-09-11T22:22:45.385Z,10.65
2018-09-11T22:25:14.929Z,7.20
2018-09-11T22:27:44.497Z,7.28
2018-09-11T22:30:14.032Z,7.60
2018-09-11T22:32:43.551Z,8.50
2018-09-11T22:35:13.101Z,8.60
2018-09-11T22:37:42.665Z,9.70
2018-09-11T22:40:12.222Z,7.17
2018-09-11T22:42:41.769Z,9.63
2018-09-11T22:45:11.269Z,6.92
2018-09-11T22:47:41.010Z,10.57
2018-09-11T22:50:10.524Z,5.70
2018-09-11T22:52:40.079Z,6.90
2018-09-11T22:55:09.583Z,6.80
2018-09-11T22:57:39.127Z,9.33
2018-09-11T23:00:09.287Z,6.40
2018-09-11T23:02:39.051Z,7.13
2018-09-11T23:05:08.604Z,6.20
2018-09-11T23:07:38.113Z,7.17
2018-09-11T23:10:07.767Z,6.13
2018-09-11T23:12:37.306Z,7.90
2018-09-11T23:15:06.851Z,6.13
2018-09-11T23:17:36.347Z,4.75
2018-09-11T23:20:05.927Z,6.08
2018-09-11T23:22:35.406Z,4.40
2018-09-11T23:25:05.530Z,5.37
2018-09-11T23:27:35.146Z,7.07
2018-09-11T23:30:04.858Z,7.53
2018-09-11T23:32:34.355Z,7.80
2018-09-11T23:35:03.919Z,5.03
2018-09-11T23:37:33.499Z,5.07
2018-09-11T23:40:03.043Z,4.50
2018-09-11T23:42:32.595Z,5.23
2018-09-11T23:47:37.207Z,8.20
2018-09-11T23:50:07.385Z,7.67
2018-09-11T23:52:37.483Z,5.03
2018-09-11T23:55:07.040Z,4.33
2018-09-11T23:57:36.527Z,4.43
